createdAt,value
2023-02-27T00:01:44.812Z,14.00
2023-02-27T00:04:13.121Z,16.77
2023-02-27T00:06:41.416Z,17.38
2023-02-27T00:09:09.956Z,21.30
2023-02-27T00:11:38.274Z,19.08
2023-02-27T00:16:59.100Z,20.13
2023-02-27T00:19:27.552Z,19.50
2023-02-27T00:21:55.747Z,22.38
2023-02-27T00:24:24.125Z,20.63
2023-02-27T00:26:52.338Z,24.83
2023-02-27T00:29:20.689Z,26.45
2023-02-27T00:31:53.054Z,26.40
2023-02-27T00:34:21.550Z,26.60
2023-02-27T00:36:49.772Z,23.05
2023-02-27T00:39:18.078Z,19.88
2023-02-27T00:41:46.327Z,17.08
2023-02-27T00:44:14.677Z,18.10
2023-02-27T00:46:42.975Z,14.57
2023-02-27T00:49:11.207Z,15.27
2023-02-27T00:51:39.478Z,17.02
2023-02-27T00:54:07.827Z,21.33
2023-02-27T00:56:36.097Z,19.73
2023-02-27T00:59:04.448Z,22.38
2023-02-27T01:01:32.683Z,21.88
2023-02-27T01:04:01.256Z,17.42
2023-02-27T01:06:31.640Z,17.80
2023-02-27T01:09:00.114Z,18.05
2023-02-27T01:11:28.305Z,19.55
2023-02-27T01:13:56.904Z,16.10
2023-02-27T01:16:25.609Z,18.35
2023-02-27T01:18:54.177Z,18.98
2023-02-27T01:21:27.705Z,32.40
2023-02-27T01:23:56.438Z,21.80
2023-02-27T01:26:24.835Z,21.63
2023-02-27T01:28:54.393Z,16.70
2023-02-27T01:31:22.682Z,15.55
2023-02-27T01:33:51.014Z,15.55
2023-02-27T01:36:19.370Z,16.02
2023-02-27T01:38:47.777Z,18.38
2023-02-27T01:41:16.180Z,16.05
2023-02-27T01:43:58.016Z,17.33
2023-02-27T01:46:26.918Z,16.02
2023-02-27T01:49:04.397Z,16.63
2023-02-27T01:51:44.590Z,17.70
2023-02-27T01:54:15.577Z,14.00
2023-02-27T01:56:44.087Z,15.50
2023-02-27T01:59:16.250Z,16.75
2023-02-27T02:01:45.450Z,18.00
2023-02-27T02:04:33.709Z,16.60
2023-02-27T02:07:07.094Z,17.25
2023-02-27T02:10:02.012Z,14.57
2023-02-27T02:12:37.384Z,19.45
2023-02-27T02:15:07.304Z,18.88
2023-02-27T02:17:54.351Z,14.68
2023-02-27T02:20:45.934Z,16.25
2023-02-27T02:23:35.787Z,15.98
2023-02-27T02:26:33.251Z,14.95
2023-02-27T02:29:41.065Z,16.58
2023-02-27T02:32:33.732Z,13.98
2023-02-27T02:35:23.454Z,16.52
2023-02-27T02:38:06.972Z,15.30
2023-02-27T02:40:47.788Z,16.77
2023-02-27T02:43:21.482Z,16.27
2023-02-27T02:46:22.912Z,13.05
2023-02-27T02:49:15.666Z,16.58
2023-02-27T02:52:05.857Z,16.42
2023-02-27T02:54:51.428Z,19.98
2023-02-27T02:57:34.765Z,19.85
2023-02-27T03:00:12.327Z,21.20
2023-02-27T03:02:47.152Z,22.75
2023-02-27T03:05:56.362Z,17.20
2023-02-27T03:08:30.257Z,17.35
2023-02-27T03:11:02.765Z,15.23
2023-02-27T03:13:51.680Z,17.15
2023-02-27T03:16:39.070Z,18.13
2023-02-27T03:19:14.958Z,17.30
2023-02-27T03:21:53.396Z,18.75
2023-02-27T03:24:32.671Z,22.45
2023-02-27T03:27:03.004Z,19.33
2023-02-27T03:29:53.231Z,20.98
2023-02-27T03:32:58.211Z,25.30
2023-02-27T03:35:52.147Z,25.27
2023-02-27T03:38:38.502Z,17.67
2023-02-27T03:41:28.822Z,16.65
2023-02-27T03:44:29.442Z,17.30
2023-02-27T03:46:58.044Z,23.75
2023-02-27T03:49:26.297Z,25.88
2023-02-27T03:51:55.072Z,24.73
2023-02-27T03:54:40.473Z,20.65
2023-02-27T03:57:09.527Z,18.65
2023-02-27T03:59:39.050Z,42.05
2023-02-27T04:02:08.205Z,29.50
2023-02-27T04:04:37.769Z,125.20
2023-02-27T04:09:11.718Z,83.80
2023-02-27T04:12:09.920Z,28.73
2023-02-27T04:14:52.890Z,39.13
2023-02-27T04:17:27.714Z,33.10
2023-02-27T04:20:20.100Z,53.55
2023-02-27T04:25:34.290Z,27.70
2023-02-27T04:28:24.647Z,24.90
2023-02-27T04:31:00.253Z,23.63
2023-02-27T04:33:49.611Z,20.55
2023-02-27T04:36:35.212Z,22.35
2023-02-27T07:50:24.506Z,32.95
2023-02-27T07:52:53.155Z,41.17
2023-02-27T07:55:21.385Z,34.78
2023-02-27T07:57:49.642Z,30.42
2023-02-27T08:00:18.529Z,49.92
2023-02-27T08:02:46.856Z,71.20
2023-02-27T08:05:15.232Z,45.30
2023-02-27T08:07:43.528Z,44.72
2023-02-27T08:10:12.648Z,67.28
2023-02-27T08:12:40.848Z,48.03
2023-02-27T08:15:12.587Z,34.67
2023-02-27T08:17:40.822Z,31.83
2023-02-27T08:20:09.637Z,25.15
2023-02-27T08:22:38.518Z,22.13
2023-02-27T08:25:08.084Z,28.90
2023-02-27T08:27:36.309Z,45.90
2023-02-27T08:30:07.018Z,28.90
2023-02-27T08:32:36.136Z,39.83
2023-02-27T08:35:04.805Z,21.83
2023-02-27T08:37:33.163Z,19.92
2023-02-27T08:40:01.561Z,26.88
2023-02-27T08:42:29.854Z,19.67
2023-02-27T08:44:58.289Z,19.20
2023-02-27T08:47:26.813Z,52.47
2023-02-27T08:49:55.044Z,73.28
2023-02-27T08:52:25.042Z,23.65
2023-02-27T08:54:53.462Z,18.70
2023-02-27T08:57:21.685Z,17.88
2023-02-27T08:59:50.039Z,18.63
2023-02-27T09:02:18.303Z,37.75
2023-02-27T09:04:46.718Z,23.08
2023-02-27T09:07:15.018Z,27.13
2023-02-27T09:09:43.303Z,20.02
2023-02-27T09:12:12.002Z,23.83
2023-02-27T09:14:40.264Z,49.55
2023-02-27T09:17:08.495Z,38.00
2023-02-27T09:19:36.736Z,31.02
2023-02-27T09:22:05.031Z,32.53
2023-02-27T09:24:33.268Z,33.75
2023-02-27T09:27:01.444Z,25.83
2023-02-27T09:29:29.784Z,32.22
2023-02-27T09:31:58.260Z,53.55
2023-02-27T09:34:26.585Z,34.25
2023-02-27T09:36:54.767Z,68.82
2023-02-27T09:39:23.040Z,32.38
2023-02-27T09:41:51.471Z,39.50
2023-02-27T09:44:47.048Z,21.45
2023-02-27T09:47:18.078Z,16.58
2023-02-27T09:50:08.814Z,19.77
2023-02-27T09:52:38.437Z,16.30
2023-02-27T09:55:31.520Z,23.02
2023-02-27T09:58:26.955Z,18.95
2023-02-27T10:01:03.834Z,32.60
2023-02-27T10:04:11.218Z,29.73
2023-02-27T10:07:03.706Z,17.92
2023-02-27T10:09:47.156Z,21.92
2023-02-27T10:12:53.394Z,14.32
2023-02-27T10:15:25.963Z,31.25
2023-02-27T10:18:25.488Z,23.35
2023-02-27T10:21:11.763Z,13.45
2023-02-27T10:23:45.800Z,15.70
2023-02-27T10:26:29.487Z,18.13
2023-02-27T10:29:02.197Z,17.48
2023-02-27T10:31:35.430Z,16.00
2023-02-27T10:34:03.863Z,13.48
2023-02-27T10:36:34.429Z,14.95
2023-02-27T10:39:07.406Z,17.55
2023-02-27T10:43:41.730Z,20.02
2023-02-27T10:46:35.173Z,15.00
2023-02-27T10:49:19.396Z,16.42
2023-02-27T10:52:05.072Z,18.77
2023-02-27T10:54:33.398Z,14.60
2023-02-27T10:57:03.496Z,15.13
2023-02-27T10:59:38.976Z,15.70
2023-02-27T11:02:42.595Z,16.02
2023-02-27T11:05:26.532Z,22.80
2023-02-27T11:07:57.462Z,18.67
2023-02-27T11:10:29.187Z,23.90
2023-02-27T11:13:19.446Z,16.50
2023-02-27T11:16:15.496Z,15.73
2023-02-27T11:18:48.807Z,13.93
2023-02-27T11:21:24.584Z,14.77
2023-02-27T11:24:00.719Z,15.27
2023-02-27T11:26:39.604Z,14.70
2023-02-27T11:29:17.564Z,14.85
2023-02-27T11:32:02.898Z,14.80
2023-02-27T11:34:47.030Z,13.75
2023-02-27T11:37:30.804Z,14.60
2023-02-27T11:40:18.494Z,16.08
2023-02-27T11:42:56.904Z,15.88
2023-02-27T11:46:10.185Z,13.73
2023-02-27T11:48:26.156Z,13.43
2023-02-27T11:50:58.129Z,18.33
2023-02-27T11:53:26.426Z,15.77
2023-02-27T11:55:58.484Z,16.13
2023-02-27T11:58:33.624Z,14.45
2023-02-27T12:01:07.099Z,13.70
2023-02-27T12:03:59.974Z,13.05
2023-02-27T12:06:36.378Z,14.70
2023-02-27T12:09:21.197Z,13.73
2023-02-27T12:11:51.328Z,13.63
2023-02-27T12:14:38.193Z,14.07
2023-02-27T12:17:29.291Z,14.52
2023-02-27T12:20:05.236Z,14.02
2023-02-27T12:22:37.024Z,14.95
2023-02-27T12:25:23.854Z,16.27
2023-02-27T12:28:08.950Z,16.40
2023-02-27T12:30:45.486Z,16.20
2023-02-27T12:33:13.946Z,13.07
2023-02-27T12:35:45.236Z,15.40
2023-02-27T12:38:15.901Z,15.27
2023-02-27T12:40:55.794Z,14.85
2023-02-27T12:43:55.911Z,14.40
2023-02-27T12:46:44.572Z,14.00
2023-02-27T12:49:27.182Z,11.82
2023-02-27T12:51:58.438Z,15.75
2023-02-27T12:54:57.324Z,13.70
2023-02-27T12:57:25.559Z,14.65
2023-02-27T13:00:06.114Z,16.65
2023-02-27T13:02:51.764Z,16.42
2023-02-27T13:05:38.517Z,13.77
2023-02-27T13:08:45.304Z,12.27
2023-02-27T13:11:42.619Z,14.35
2023-02-27T13:17:21.516Z,18.58
2023-02-27T13:20:25.630Z,15.23
2023-02-27T13:23:09.083Z,15.40
2023-02-27T13:25:39.009Z,15.93
2023-02-27T13:28:14.092Z,12.80
2023-02-27T13:31:08.382Z,13.98
2023-02-27T13:33:42.612Z,14.50
2023-02-27T13:36:24.494Z,13.60
2023-02-27T13:38:55.243Z,14.88
2023-02-27T13:41:26.639Z,13.73
2023-02-27T13:46:26.195Z,16.27
2023-02-27T13:49:07.920Z,15.15
2023-02-27T13:54:26.460Z,12.18
2023-02-27T13:56:57.667Z,14.60
2023-02-27T13:59:40.250Z,14.60
2023-02-27T14:02:11.413Z,15.23
2023-02-27T14:04:52.217Z,13.98
2023-02-27T14:07:29.610Z,14.95
2023-02-27T14:10:11.938Z,15.40
2023-02-27T14:12:45.762Z,12.73
2023-02-27T14:15:23.659Z,14.98
2023-02-27T14:40:35.627Z,15.68
2023-02-27T14:43:35.435Z,15.00
2023-02-27T14:46:13.238Z,15.63
2023-02-27T14:48:41.684Z,15.93
2023-02-27T14:51:10.646Z,16.13
2023-02-27T14:53:41.918Z,15.27
2023-02-27T14:56:19.904Z,13.75
2023-02-27T14:58:55.578Z,13.20
2023-02-27T15:01:36.848Z,13.23
2023-02-27T15:04:05.820Z,15.15
2023-02-27T15:06:45.953Z,16.13
2023-02-27T15:09:35.769Z,15.13
2023-02-27T15:12:05.275Z,16.20
2023-02-27T15:14:38.137Z,14.55
2023-02-27T15:17:16.989Z,15.95
2023-02-27T15:19:53.737Z,14.20
2023-02-27T15:22:38.119Z,13.55
2023-02-27T15:25:08.318Z,18.15
2023-02-27T15:27:37.296Z,13.95
2023-02-27T15:30:07.624Z,17.02
2023-02-27T15:32:40.459Z,15.32
2023-02-27T15:35:25.218Z,13.68
2023-02-27T15:37:58.926Z,15.13
2023-02-27T15:40:33.457Z,14.80
2023-02-27T15:43:02.769Z,14.15
2023-02-27T15:45:37.547Z,14.80
2023-02-27T15:48:06.792Z,15.85
2023-02-27T15:50:38.882Z,16.73
2023-02-27T15:53:28.585Z,15.25
2023-02-27T15:55:59.906Z,14.75
2023-02-27T15:58:33.742Z,14.55
2023-02-27T16:01:33.910Z,16.38
2023-02-27T16:04:07.012Z,14.07
2023-02-27T16:06:39.216Z,16.27
2023-02-27T16:09:25.795Z,15.52
2023-02-27T16:12:17.206Z,15.80
2023-02-27T16:14:46.268Z,15.82
2023-02-27T16:17:29.406Z,16.63
2023-02-27T16:20:01.711Z,18.27
2023-02-27T16:22:30.270Z,14.60
2023-02-27T16:25:10.335Z,16.08
2023-02-27T16:27:40.080Z,16.73
2023-02-27T16:30:12.460Z,15.70
2023-02-27T16:32:43.237Z,15.05
2023-02-27T16:35:23.324Z,16.58
2023-02-27T16:37:51.964Z,16.98
2023-02-27T16:40:23.043Z,16.75
2023-02-27T16:42:53.014Z,15.30
2023-02-27T16:45:24.385Z,17.02
2023-02-27T16:47:56.106Z,14.43
2023-02-27T16:50:41.133Z,14.13
2023-02-27T16:53:09.627Z,15.65
2023-02-27T16:55:42.099Z,14.07
2023-02-27T16:58:19.058Z,16.75
2023-02-27T17:00:47.413Z,14.55
2023-02-27T17:03:15.621Z,15.13
2023-02-27T17:05:43.791Z,17.10
2023-02-27T17:08:12.465Z,14.82
2023-02-27T17:10:40.820Z,14.98
2023-02-27T17:13:08.923Z,14.43
2023-02-27T17:15:37.150Z,15.75
2023-02-27T17:18:06.057Z,15.88
2023-02-27T17:20:34.908Z,14.73
2023-02-27T17:23:03.182Z,14.60
2023-02-27T17:25:31.528Z,15.30
2023-02-27T17:27:59.723Z,15.02
2023-02-27T17:30:28.311Z,12.90
2023-02-27T17:32:58.703Z,16.10
2023-02-27T17:35:28.608Z,15.48
2023-02-27T17:37:57.734Z,14.57
2023-02-27T17:40:26.976Z,14.40
2023-02-27T17:42:55.286Z,18.35
2023-02-27T17:45:23.897Z,17.15
2023-02-27T17:47:52.153Z,17.38
2023-02-27T17:50:20.734Z,17.42
2023-02-27T17:52:48.925Z,24.13
2023-02-27T17:55:17.361Z,15.60
2023-02-27T17:57:45.577Z,14.43
2023-02-27T18:00:15.082Z,16.40
2023-02-27T18:02:45.488Z,18.77
2023-02-27T18:05:13.975Z,16.90
2023-02-27T18:07:42.267Z,15.55
2023-02-27T18:10:11.661Z,18.10
2023-02-27T18:12:39.976Z,20.02
2023-02-27T18:15:08.950Z,19.02
2023-02-27T18:17:37.133Z,17.48
2023-02-27T18:20:06.035Z,17.98
2023-02-27T18:22:34.264Z,17.85
2023-02-27T18:25:02.528Z,19.27
2023-02-27T18:27:30.849Z,19.95
2023-02-27T18:29:59.129Z,18.85
2023-02-27T18:32:27.489Z,16.55
2023-02-27T18:34:55.624Z,14.98
2023-02-27T18:37:23.938Z,15.15
2023-02-27T18:39:52.265Z,16.10
2023-02-27T18:42:20.356Z,16.80
2023-02-27T18:44:48.802Z,17.63
2023-02-27T18:47:17.104Z,17.23
2023-02-27T18:49:45.537Z,17.25
2023-02-27T18:52:13.917Z,17.70
2023-02-27T18:54:42.190Z,20.15
2023-02-27T18:57:11.422Z,25.75
2023-02-27T18:59:40.499Z,22.38
2023-02-27T19:02:15.528Z,20.30
2023-02-27T19:04:43.900Z,19.00
2023-02-27T19:07:12.405Z,23.08
2023-02-27T19:09:40.824Z,19.27
2023-02-27T19:12:09.806Z,18.70
2023-02-27T19:14:38.987Z,20.83
2023-02-27T19:17:07.904Z,22.70
2023-02-27T19:19:36.267Z,18.95
2023-02-27T19:22:04.769Z,21.42
2023-02-27T19:24:32.944Z,21.52
2023-02-27T19:27:01.226Z,26.55
2023-02-27T19:29:29.694Z,24.70
2023-02-27T19:31:57.938Z,22.35
2023-02-27T19:34:26.353Z,23.40
2023-02-27T19:36:54.590Z,21.48
2023-02-27T19:39:23.018Z,22.98
2023-02-27T19:41:51.460Z,19.75
2023-02-27T19:44:19.728Z,16.10
2023-02-27T19:46:48.084Z,20.67
2023-02-27T19:49:16.255Z,22.13
2023-02-27T19:51:44.625Z,17.17
2023-02-27T19:54:14.937Z,18.48
2023-02-27T19:56:43.700Z,20.17
2023-02-27T19:59:13.048Z,18.17
2023-02-27T20:01:41.857Z,18.33
2023-02-27T20:04:11.254Z,18.23
2023-02-27T20:06:39.648Z,17.70
2023-02-27T20:09:08.753Z,20.63
2023-02-27T20:11:37.386Z,18.85
2023-02-27T20:14:05.676Z,17.48
2023-02-27T20:16:34.260Z,15.52
2023-02-27T20:19:06.629Z,16.23
2023-02-27T20:21:35.294Z,19.52
2023-02-27T20:24:03.759Z,21.60
2023-02-27T20:26:35.605Z,20.17
2023-02-27T20:29:07.919Z,20.52
2023-02-27T20:31:38.000Z,20.83
2023-02-27T20:34:08.102Z,29.65
2023-02-27T20:36:36.812Z,20.17
2023-02-27T20:39:06.891Z,16.50
2023-02-27T20:41:35.844Z,16.63
2023-02-27T20:44:05.958Z,19.85
2023-02-27T20:46:34.872Z,18.23
2023-02-27T20:49:04.982Z,18.92
2023-02-27T20:51:35.930Z,14.55
2023-02-27T20:56:39.161Z,22.42
2023-02-27T20:59:09.271Z,18.95
2023-02-27T21:01:38.561Z,20.90
2023-02-27T21:04:07.314Z,23.52
2023-02-27T21:06:35.702Z,22.95
2023-02-27T21:09:07.298Z,19.10
2023-02-27T21:11:35.602Z,22.60
2023-02-27T21:14:07.501Z,21.98
2023-02-27T21:19:04.494Z,19.67
2023-02-27T21:21:35.659Z,19.45
2023-02-27T21:24:04.480Z,20.97
2023-02-27T21:26:36.489Z,18.75
2023-02-27T21:31:36.437Z,25.65
2023-02-27T21:34:07.882Z,23.42
2023-02-27T21:36:39.239Z,25.73
2023-02-27T21:39:09.213Z,28.10
2023-02-27T21:41:37.444Z,25.95
2023-02-27T21:44:07.823Z,25.67
2023-02-27T21:46:36.627Z,29.75
2023-02-27T21:49:05.329Z,22.00
2023-02-27T21:51:40.535Z,25.77
2023-02-27T21:54:12.291Z,20.30
2023-02-27T21:56:42.628Z,23.17
2023-02-27T21:59:11.689Z,27.67
2023-02-27T22:01:40.206Z,25.83
2023-02-27T22:04:08.769Z,24.38
2023-02-27T22:06:37.216Z,25.73
2023-02-27T22:09:06.903Z,23.60
2023-02-27T22:11:36.597Z,33.42
2023-02-27T22:14:07.029Z,20.83
2023-02-27T22:16:35.740Z,22.70
2023-02-27T22:19:15.407Z,25.95
2023-02-27T22:21:43.704Z,25.73
2023-02-27T22:24:12.329Z,32.85
2023-02-27T22:26:40.985Z,25.35
2023-02-27T22:29:09.306Z,28.38
2023-02-27T22:31:38.888Z,28.83
2023-02-27T22:34:13.340Z,30.50
2023-02-27T22:36:41.726Z,28.30
2023-02-27T22:39:11.514Z,31.73
2023-02-27T22:41:43.471Z,24.10
2023-02-27T22:44:14.553Z,20.45
2023-02-27T22:46:45.522Z,19.13
2023-02-27T22:49:17.365Z,16.80
2023-02-27T22:51:46.284Z,16.73
2023-02-27T22:54:15.658Z,16.25
2023-02-27T22:56:44.425Z,18.25
2023-02-27T22:59:13.194Z,20.90
2023-02-27T23:01:41.567Z,28.50
2023-02-27T23:04:10.298Z,28.48
2023-02-27T23:06:40.888Z,34.58
2023-02-27T23:09:13.125Z,99.50
2023-02-27T23:11:41.645Z,116.38
2023-02-27T23:14:10.849Z,108.05
2023-02-27T23:16:39.237Z,76.88
2023-02-27T23:19:07.702Z,49.95
2023-02-27T23:21:36.739Z,41.65
2023-02-27T23:24:13.201Z,39.60
2023-02-27T23:26:44.708Z,63.63
2023-02-27T23:29:13.333Z,77.03
2023-02-27T23:31:41.805Z,87.82
2023-02-27T23:34:10.650Z,91.35
2023-02-27T23:36:40.184Z,99.93
2023-02-27T23:39:09.481Z,91.75
2023-02-27T23:41:37.866Z,94.40
2023-02-27T23:44:06.126Z,107.00
2023-02-27T23:46:34.490Z,68.93
2023-02-27T23:49:03.027Z,76.93
2023-02-27T23:51:31.712Z,161.60
2023-02-27T23:54:01.011Z,107.20
2023-02-27T23:56:31.634Z,68.38
2023-02-27T23:59:03.191Z,70.57
